createdAt,value
2018-07-06T00:02:00.829Z,88.07
2018-07-06T00:04:42.219Z,87.76
2018-07-06T00:07:23.436Z,87.39
2018-07-06T00:10:04.997Z,87.67
2018-07-06T00:12:46.218Z,88.18
2018-07-06T00:15:27.247Z,87.93
2018-07-06T00:18:08.790Z,87.57
2018-07-06T00:20:49.350Z,88.05
2018-07-06T00:23:30.685Z,88.20
2018-07-06T00:26:11.967Z,88.19
2018-07-06T00:28:53.437Z,88.36
2018-07-06T00:31:34.839Z,87.79
2018-07-06T00:34:16.228Z,88.11
2018-07-06T00:36:58.436Z,88.53
2018-07-06T00:39:39.666Z,87.47
2018-07-06T00:42:20.601Z,88.12
2018-07-06T00:45:02.013Z,88.28
2018-07-06T00:47:43.557Z,88.53
2018-07-06T00:50:24.781Z,87.61
2018-07-06T00:53:05.920Z,88.15
2018-07-06T00:55:47.306Z,88.79
2018-07-06T00:58:28.693Z,88.49
2018-07-06T01:01:10.083Z,88.58
2018-07-06T01:03:51.725Z,88.78
2018-07-06T01:06:33.258Z,88.95
2018-07-06T01:09:14.237Z,88.74
2018-07-06T01:11:55.466Z,88.70
2018-07-06T01:14:36.946Z,88.84
2018-07-06T01:17:17.747Z,89.11
2018-07-06T01:19:58.952Z,88.92
2018-07-06T01:22:40.205Z,88.77
2018-07-06T01:25:21.043Z,89.54
2018-07-06T01:28:02.127Z,88.81
2018-07-06T01:30:43.663Z,89.63
2018-07-06T01:33:24.647Z,89.00
2018-07-06T01:36:05.874Z,88.91
2018-07-06T01:38:47.425Z,89.51
2018-07-06T01:41:28.295Z,89.14
2018-07-06T01:44:09.781Z,89.56
2018-07-06T01:46:51.139Z,89.03
2018-07-06T01:49:32.488Z,89.85
2018-07-06T01:52:13.933Z,89.21
2018-07-06T01:54:55.344Z,89.43
2018-07-06T01:57:36.634Z,89.11
2018-07-06T02:00:17.681Z,89.56
2018-07-06T02:02:58.653Z,89.69
2018-07-06T02:05:39.902Z,89.81
2018-07-06T02:08:20.994Z,89.10
2018-07-06T02:11:02.228Z,89.06
2018-07-06T02:13:43.609Z,89.48
2018-07-06T02:16:24.756Z,89.50
2018-07-06T02:19:06.142Z,89.31
2018-07-06T02:21:47.116Z,89.34
2018-07-06T02:24:28.505Z,89.61
2018-07-06T02:27:09.371Z,89.66
2018-07-06T02:29:50.341Z,89.38
2018-07-06T02:32:32.498Z,89.00
2018-07-06T02:35:13.904Z,89.37
2018-07-06T02:37:55.405Z,89.45
2018-07-06T02:40:36.400Z,89.40
2018-07-06T02:43:17.637Z,89.34
2018-07-06T02:45:59.464Z,89.72
2018-07-06T02:48:40.413Z,89.75
2018-07-06T02:51:21.316Z,89.83
2018-07-06T02:54:02.922Z,90.23
2018-07-06T02:56:43.903Z,89.28
2018-07-06T02:59:24.865Z,89.31
2018-07-06T03:02:06.509Z,89.72
2018-07-06T03:04:47.876Z,89.75
2018-07-06T03:07:29.430Z,89.84
2018-07-06T03:10:10.660Z,89.54
2018-07-06T03:12:51.551Z,89.02
2018-07-06T03:15:32.185Z,88.43
2018-07-06T03:18:13.592Z,89.10
2018-07-06T03:20:54.678Z,89.28
2018-07-06T03:23:35.685Z,89.05
2018-07-06T03:26:17.071Z,89.74
2018-07-06T03:28:57.874Z,89.22
2018-07-06T03:31:38.583Z,89.13
2018-07-06T03:34:19.491Z,89.00
2018-07-06T03:36:59.990Z,89.26
2018-07-06T03:39:41.082Z,90.10
2018-07-06T03:42:21.901Z,89.43
2018-07-06T03:45:03.493Z,89.85
2018-07-06T03:47:44.887Z,89.98
2018-07-06T03:50:25.737Z,89.75
2018-07-06T03:53:07.121Z,90.03
2018-07-06T03:55:48.521Z,89.94
2018-07-06T03:58:29.913Z,90.62
2018-07-06T04:01:11.301Z,90.65
2018-07-06T04:03:52.732Z,90.09
2018-07-06T04:06:34.018Z,90.83
2018-07-06T04:09:15.586Z,90.73
2018-07-06T04:11:56.765Z,90.08
2018-07-06T04:14:38.197Z,89.82
2018-07-06T04:17:19.668Z,89.65
2018-07-06T04:20:00.941Z,89.79
2018-07-06T04:22:42.464Z,89.69
2018-07-06T04:25:23.860Z,89.99
2018-07-06T04:28:04.434Z,89.22
2018-07-06T04:30:45.740Z,89.63
2018-07-06T04:33:26.788Z,89.09
2018-07-06T04:36:08.480Z,89.31
2018-07-06T04:38:49.557Z,88.99
2018-07-06T04:41:30.796Z,89.11
2018-07-06T04:44:11.901Z,89.58
2018-07-06T04:46:53.130Z,88.83
2018-07-06T04:49:34.163Z,89.41
2018-07-06T04:52:15.459Z,89.69
2018-07-06T04:54:56.322Z,88.99
2018-07-06T04:57:37.811Z,89.14
2018-07-06T05:00:18.723Z,89.14
2018-07-06T05:02:59.997Z,89.81
2018-07-06T05:05:40.510Z,89.40
2018-07-06T05:08:22.124Z,89.51
2018-07-06T05:11:03.516Z,88.80
2018-07-06T05:13:44.696Z,88.96
2018-07-06T05:16:26.101Z,89.51
2018-07-06T05:19:07.136Z,90.13
2018-07-06T05:21:48.144Z,89.75
2018-07-06T05:24:29.508Z,90.68
2018-07-06T05:27:10.634Z,90.95
2018-07-06T05:29:51.853Z,91.57
2018-07-06T05:32:33.360Z,91.09
2018-07-06T05:35:14.124Z,91.22
2018-07-06T05:37:54.807Z,91.29
2018-07-06T05:40:36.126Z,91.40
2018-07-06T05:43:16.732Z,92.16
2018-07-06T05:45:58.125Z,91.27
2018-07-06T05:48:39.059Z,92.00
2018-07-06T05:51:20.603Z,91.69
2018-07-06T05:54:01.583Z,92.07
2018-07-06T05:56:42.951Z,91.52
2018-07-06T05:59:23.686Z,91.30
2018-07-06T06:02:05.265Z,92.03
2018-07-06T06:04:46.684Z,91.62
2018-07-06T06:07:21.138Z,92.64
2018-07-06T06:09:51.804Z,93.13
2018-07-06T06:12:23.780Z,93.39
2018-07-06T06:14:55.092Z,93.33
2018-07-06T06:17:26.024Z,93.42
2018-07-06T06:19:56.705Z,93.14
2018-07-06T06:22:27.081Z,93.62
2018-07-06T06:24:57.660Z,92.93
2018-07-06T06:27:28.237Z,93.27
2018-07-06T06:29:58.857Z,93.37
2018-07-06T06:32:29.637Z,92.66
2018-07-06T06:35:01.537Z,92.94
2018-07-06T06:37:32.340Z,92.89
2018-07-06T06:40:03.168Z,93.07
2018-07-06T06:42:33.779Z,93.51
2018-07-06T06:45:04.277Z,93.30
2018-07-06T06:47:35.328Z,92.18
2018-07-06T06:50:05.597Z,92.36
2018-07-06T06:52:36.417Z,92.72
2018-07-06T06:55:07.065Z,91.50
2018-07-06T06:57:37.935Z,91.16
2018-07-06T07:00:08.947Z,91.28
2018-07-06T07:02:39.269Z,91.28
2018-07-06T07:05:09.814Z,91.73
2018-07-06T07:07:40.433Z,92.07
2018-07-06T07:10:11.341Z,91.42
2018-07-06T07:12:42.080Z,91.28
2018-07-06T07:15:12.876Z,92.55
2018-07-06T07:17:44.371Z,92.38
2018-07-06T07:20:15.125Z,92.66
2018-07-06T07:22:45.853Z,91.79
2018-07-06T07:25:16.527Z,91.98
2018-07-06T07:27:47.281Z,91.65
2018-07-06T07:30:18.171Z,92.21
2018-07-06T07:32:49.068Z,92.51
2018-07-06T07:35:19.603Z,93.08
2018-07-06T07:37:50.829Z,92.97
2018-07-06T07:40:21.074Z,93.15
2018-07-06T07:42:52.189Z,93.12
2018-07-06T07:45:22.910Z,93.49
2018-07-06T07:47:53.462Z,93.81
2018-07-06T07:50:24.025Z,94.10
2018-07-06T07:53:04.523Z,94.58
2018-07-06T07:55:34.879Z,94.46
2018-07-06T07:58:04.901Z,93.79
2018-07-06T08:00:35.638Z,93.67
2018-07-06T08:03:07.026Z,94.15
2018-07-06T08:05:36.904Z,92.92
2018-07-06T08:08:07.822Z,94.62
2018-07-06T08:10:37.696Z,93.50
2018-07-06T08:13:08.065Z,93.38
2018-07-06T08:15:38.377Z,92.83
2018-07-06T08:18:09.007Z,93.35
2018-07-06T08:20:39.846Z,92.64
2018-07-06T08:23:10.188Z,92.38
2018-07-06T08:25:40.748Z,93.07
2018-07-06T08:28:11.691Z,92.40
2018-07-06T08:30:42.494Z,92.87
2018-07-06T08:33:13.396Z,92.81
2018-07-06T08:35:54.583Z,91.32
2018-07-06T08:38:25.191Z,89.73
2018-07-06T08:40:55.771Z,90.77
2018-07-06T08:43:26.600Z,91.02
2018-07-06T08:45:57.254Z,91.92
2018-07-06T08:48:27.420Z,91.57
2018-07-06T08:50:58.315Z,91.34
2018-07-06T08:53:29.051Z,90.96
2018-07-06T08:55:59.719Z,91.66
2018-07-06T08:58:30.201Z,89.53
2018-07-06T09:01:01.330Z,90.66
2018-07-06T09:03:32.039Z,91.18
2018-07-06T09:06:03.105Z,89.95
2018-07-06T09:08:33.668Z,90.65
2018-07-06T09:11:04.060Z,89.93
2018-07-06T09:13:34.642Z,90.69
2018-07-06T09:16:05.266Z,90.97
2018-07-06T09:18:35.744Z,90.06
2018-07-06T09:21:06.349Z,89.76
2018-07-06T09:23:37.126Z,89.17
2018-07-06T09:26:08.096Z,89.86
2018-07-06T09:28:38.751Z,88.55
2018-07-06T09:31:09.694Z,89.04
2018-07-06T09:33:40.106Z,88.45
2018-07-06T09:36:10.473Z,87.65
2018-07-06T09:38:41.114Z,88.60
2018-07-06T09:41:11.507Z,86.93
2018-07-06T09:43:42.186Z,86.78
2018-07-06T09:46:12.845Z,87.21
2018-07-06T09:48:43.514Z,86.77
2018-07-06T09:51:14.353Z,86.64
2018-07-06T09:53:45.109Z,84.90
2018-07-06T09:56:15.843Z,86.19
2018-07-06T09:58:46.585Z,85.08
2018-07-06T10:01:16.961Z,87.40
2018-07-06T10:03:47.620Z,86.76
2018-07-06T10:06:18.176Z,86.17
2018-07-06T10:08:49.234Z,86.53
2018-07-06T10:11:20.368Z,88.06
2018-07-06T10:13:50.816Z,86.60
2018-07-06T10:16:21.557Z,86.34
2018-07-06T10:18:52.481Z,86.40
2018-07-06T10:21:24.233Z,84.87
2018-07-06T10:23:54.873Z,84.11
2018-07-06T10:26:24.942Z,83.73
2018-07-06T10:29:36.588Z,83.54
2018-07-06T10:32:22.023Z,80.98
2018-07-06T10:34:52.701Z,78.80
2018-07-06T10:37:23.357Z,81.12
2018-07-06T10:39:54.315Z,83.88
2018-07-06T10:42:24.535Z,81.71
2018-07-06T10:44:55.284Z,80.26
2018-07-06T10:47:26.365Z,81.48
2018-07-06T10:49:56.715Z,80.39
2018-07-06T10:52:27.226Z,80.96
2018-07-06T10:54:57.803Z,80.25
2018-07-06T10:57:28.444Z,79.13
2018-07-06T10:59:58.822Z,79.67
2018-07-06T11:02:29.849Z,80.68
2018-07-06T11:05:00.630Z,80.64
2018-07-06T11:07:31.262Z,75.48
2018-07-06T11:10:01.352Z,75.86
2018-07-06T11:12:31.295Z,73.96
2018-07-06T11:15:02.302Z,74.85
2018-07-06T11:17:32.730Z,74.89
2018-07-06T11:20:03.404Z,74.70
2018-07-06T11:22:34.070Z,75.10
2018-07-06T11:25:04.616Z,74.82
2018-07-06T11:27:35.996Z,74.53
2018-07-06T11:30:06.402Z,75.21
2018-07-06T11:32:36.995Z,74.78
2018-07-06T11:35:07.709Z,73.49
2018-07-06T11:37:38.473Z,73.64
2018-07-06T11:40:09.361Z,74.82
2018-07-06T11:42:40.096Z,73.13
2018-07-06T11:45:10.756Z,73.91
2018-07-06T11:47:41.100Z,74.56
2018-07-06T11:50:11.512Z,75.52
2018-07-06T11:52:42.474Z,75.76
2018-07-06T11:55:12.952Z,74.38
2018-07-06T11:57:43.580Z,73.47
2018-07-06T12:00:14.320Z,75.64
2018-07-06T12:02:44.921Z,76.87
2018-07-06T12:05:15.873Z,78.44
2018-07-06T12:07:46.600Z,75.68
2018-07-06T12:10:16.960Z,78.38
2018-07-06T12:12:47.626Z,80.41
2018-07-06T12:15:18.281Z,82.89
2018-07-06T12:17:48.956Z,86.22
2018-07-06T12:20:19.662Z,86.23
2018-07-06T12:22:50.606Z,88.05
2018-07-06T12:25:20.919Z,88.52
2018-07-06T12:27:51.309Z,89.25
2018-07-06T12:30:22.005Z,89.64
2018-07-06T12:32:52.752Z,90.56
2018-07-06T12:35:23.408Z,91.00
2018-07-06T12:37:53.775Z,92.84
2018-07-06T12:40:24.146Z,91.53
2018-07-06T12:42:54.840Z,91.73
2018-07-06T12:45:25.334Z,91.06
2018-07-06T12:47:55.651Z,91.46
2018-07-06T12:50:26.289Z,92.52
2018-07-06T12:52:57.362Z,92.05
2018-07-06T12:55:28.117Z,92.49
2018-07-06T12:57:58.710Z,92.42
2018-07-06T13:00:29.502Z,92.53
2018-07-06T13:03:00.195Z,92.59
2018-07-06T13:05:30.950Z,93.22
2018-07-06T13:08:01.619Z,94.01
2018-07-06T13:10:31.759Z,93.46
2018-07-06T13:13:02.482Z,93.88
2018-07-06T13:15:33.453Z,93.70
2018-07-06T13:18:03.505Z,93.63
2018-07-06T13:20:34.125Z,94.03
2018-07-06T13:23:05.188Z,94.97
2018-07-06T13:25:36.090Z,95.26
2018-07-06T13:28:06.416Z,95.26
2018-07-06T13:30:36.823Z,94.91
2018-07-06T13:33:07.360Z,95.79
2018-07-06T13:35:37.837Z,95.26
2018-07-06T13:38:08.549Z,94.94
2018-07-06T13:40:38.936Z,94.40
2018-07-06T13:43:09.921Z,94.83
2018-07-06T13:45:40.349Z,94.43
2018-07-06T13:48:10.600Z,93.91
2018-07-06T13:50:41.529Z,94.79
2018-07-06T13:53:12.263Z,94.28
2018-07-06T13:55:42.937Z,93.97
2018-07-06T13:58:13.543Z,93.86
2018-07-06T14:00:43.975Z,94.82
2018-07-06T14:03:13.932Z,94.20
2018-07-06T14:05:44.454Z,94.22
2018-07-06T14:08:15.073Z,93.62
2018-07-06T14:10:45.736Z,93.94
2018-07-06T14:13:16.305Z,94.39
2018-07-06T14:15:47.018Z,93.66
2018-07-06T14:18:17.899Z,93.13
2018-07-06T14:20:47.885Z,91.07
2018-07-06T14:23:18.515Z,91.75
2018-07-06T14:25:48.553Z,91.69
2018-07-06T14:28:19.435Z,91.12
2018-07-06T14:30:50.201Z,92.57
2018-07-06T14:33:20.945Z,92.08
2018-07-06T14:35:51.275Z,92.77
2018-07-06T14:38:21.606Z,92.60
2018-07-06T14:40:52.349Z,92.94
2018-07-06T14:43:23.062Z,93.02
2018-07-06T14:45:53.516Z,93.93
2018-07-06T14:48:24.146Z,93.61
2018-07-06T14:50:54.600Z,94.31
2018-07-06T14:53:25.104Z,93.68
2018-07-06T14:55:56.099Z,94.02
2018-07-06T14:58:26.292Z,94.09
2018-07-06T15:00:56.690Z,92.90
2018-07-06T15:03:27.272Z,92.84
2018-07-06T15:05:58.086Z,93.20
2018-07-06T15:08:28.775Z,91.31
2018-07-06T15:10:59.522Z,91.61
2018-07-06T15:13:30.147Z,92.94
2018-07-06T15:16:02.067Z,91.54
2018-07-06T15:18:32.638Z,92.18
2018-07-06T15:21:03.715Z,91.96
2018-07-06T15:23:34.064Z,91.63
2018-07-06T15:26:04.530Z,91.78
2018-07-06T15:28:35.225Z,91.16
2018-07-06T15:31:05.927Z,91.89
2018-07-06T15:33:36.513Z,92.33
2018-07-06T15:36:07.423Z,91.37
2018-07-06T15:38:37.352Z,90.93
2018-07-06T15:41:08.321Z,90.82
2018-07-06T15:43:38.780Z,89.48
2018-07-06T15:46:09.842Z,90.29
2018-07-06T15:48:40.379Z,90.63
2018-07-06T15:51:10.997Z,90.83
2018-07-06T15:53:41.505Z,91.25
2018-07-06T15:56:12.212Z,91.41
2018-07-06T15:58:43.050Z,91.78
2018-07-06T16:01:13.483Z,92.72
2018-07-06T16:03:44.107Z,92.63
2018-07-06T16:06:14.839Z,93.48
2018-07-06T16:08:45.976Z,93.24
2018-07-06T16:11:16.729Z,92.93
2018-07-06T16:13:47.392Z,93.29
2018-07-06T16:16:18.754Z,93.19
2018-07-06T16:18:49.365Z,93.75
2018-07-06T16:21:19.790Z,93.89
2018-07-06T16:23:50.255Z,93.85
2018-07-06T16:26:21.335Z,93.83
2018-07-06T16:28:55.348Z,94.76
2018-07-06T16:31:25.950Z,94.83
2018-07-06T16:33:57.149Z,93.96
2018-07-06T16:36:27.150Z,95.14
2018-07-06T16:38:58.030Z,95.39
2018-07-06T16:41:28.842Z,95.53
2018-07-06T16:43:59.600Z,95.67
2018-07-06T16:46:30.034Z,95.98
2018-07-06T16:49:01.092Z,96.00
2018-07-06T16:51:31.509Z,95.67
2018-07-06T16:54:01.313Z,96.29
2018-07-06T16:56:31.795Z,96.25
2018-07-06T16:59:02.688Z,96.23
2018-07-06T17:01:33.240Z,95.98
2018-07-06T17:04:03.133Z,96.24
2018-07-06T17:06:34.131Z,96.80
2018-07-06T17:09:05.911Z,97.12
2018-07-06T17:11:36.838Z,96.80
2018-07-06T17:14:07.539Z,97.09
2018-07-06T17:16:37.993Z,96.58
2018-07-06T17:19:08.614Z,96.72
2018-07-06T17:21:39.546Z,96.62
2018-07-06T17:24:10.679Z,96.87
2018-07-06T17:26:41.014Z,96.66
2018-07-06T17:29:11.744Z,97.57
2018-07-06T17:31:42.288Z,97.32
2018-07-06T17:34:13.009Z,96.67
2018-07-06T17:36:43.838Z,97.54
2018-07-06T17:39:14.235Z,97.57
2018-07-06T17:41:45.045Z,97.51
2018-07-06T17:44:16.244Z,97.56
2018-07-06T17:46:46.823Z,97.96
2018-07-06T17:49:17.174Z,97.03
2018-07-06T17:51:47.760Z,97.54
2018-07-06T17:54:18.460Z,97.10
2018-07-06T17:56:48.907Z,96.69
2018-07-06T17:59:20.771Z,97.19
2018-07-06T18:01:51.507Z,97.23
2018-07-06T18:04:22.308Z,97.42
2018-07-06T18:06:52.810Z,97.23
2018-07-06T18:09:23.658Z,96.50
2018-07-06T18:11:54.292Z,97.17
2018-07-06T18:14:25.761Z,97.04
2018-07-06T18:16:56.526Z,97.36
2018-07-06T18:19:28.692Z,96.10
2018-07-06T18:21:59.267Z,95.18
2018-07-06T18:24:30.232Z,95.68
2018-07-06T18:27:00.665Z,94.93
2018-07-06T18:29:31.492Z,93.90
2018-07-06T18:32:02.397Z,94.07
2018-07-06T18:34:33.127Z,92.85
2018-07-06T18:37:03.837Z,93.48
2018-07-06T18:39:34.567Z,93.46
2018-07-06T18:42:04.786Z,93.46
2018-07-06T18:44:34.726Z,92.34
2018-07-06T18:47:05.745Z,92.66
2018-07-06T18:49:36.130Z,92.55
2018-07-06T18:52:06.810Z,92.32
2018-07-06T18:54:38.002Z,93.14
2018-07-06T18:57:08.919Z,92.98
2018-07-06T18:59:39.483Z,93.73
2018-07-06T19:04:55.223Z,94.07
2018-07-06T19:07:25.533Z,93.79
2018-07-06T19:09:56.620Z,94.92
2018-07-06T19:12:29.776Z,94.43
2018-07-06T19:15:00.181Z,94.65
2018-07-06T19:17:30.961Z,94.66
2018-07-06T19:20:02.338Z,95.66
2018-07-06T19:22:33.296Z,95.53
2018-07-06T19:25:04.190Z,96.17
2018-07-06T19:27:34.938Z,95.60
2018-07-06T19:30:05.683Z,95.77
2018-07-06T19:32:36.495Z,95.50
2018-07-06T19:35:07.172Z,95.30
2018-07-06T19:37:37.675Z,95.38
2018-07-06T19:40:08.170Z,95.25
2018-07-06T19:42:38.972Z,95.68
2018-07-06T19:45:09.416Z,95.83
2018-07-06T19:47:39.591Z,96.41
2018-07-06T19:50:10.312Z,97.13
2018-07-06T19:52:41.031Z,97.11
2018-07-06T19:55:11.846Z,97.96
2018-07-06T19:57:42.612Z,97.37
2018-07-06T20:00:13.273Z,97.00
2018-07-06T20:02:45.068Z,97.32
2018-07-06T20:05:15.810Z,96.94
2018-07-06T20:07:46.923Z,97.14
2018-07-06T20:10:17.155Z,97.07
2018-07-06T20:12:47.954Z,97.37
2018-07-06T20:15:18.680Z,97.56
2018-07-06T20:17:49.438Z,96.67
2018-07-06T20:20:19.990Z,96.66
2018-07-06T20:22:50.459Z,96.85
2018-07-06T20:25:21.592Z,96.54
2018-07-06T20:27:52.334Z,96.39
2018-07-06T20:30:23.089Z,96.72
2018-07-06T20:32:53.749Z,95.80
2018-07-06T20:35:23.992Z,95.87
2018-07-06T20:37:54.814Z,95.19
2018-07-06T20:40:25.193Z,95.08
2018-07-06T20:42:55.478Z,94.16
2018-07-06T20:45:26.545Z,94.91
2018-07-06T20:47:57.293Z,93.78
2018-07-06T20:50:28.236Z,94.40
2018-07-06T20:52:58.831Z,93.35
2018-07-06T20:55:30.605Z,93.27
2018-07-06T20:58:01.455Z,94.35
2018-07-06T21:00:32.225Z,95.32
2018-07-06T21:03:02.837Z,94.22
2018-07-06T21:05:33.348Z,94.27
2018-07-06T21:08:03.817Z,95.24
2018-07-06T21:10:34.808Z,94.86
2018-07-06T21:13:05.678Z,95.28
2018-07-06T21:15:36.620Z,95.50
2018-07-06T21:18:07.779Z,95.63
2018-07-06T21:20:38.633Z,96.34
2018-07-06T21:23:09.424Z,95.93
2018-07-06T21:25:40.483Z,95.29
2018-07-06T21:28:11.566Z,95.60
2018-07-06T21:30:42.185Z,95.78
2018-07-06T21:33:12.157Z,95.67
2018-07-06T21:35:42.625Z,96.00
2018-07-06T21:38:13.634Z,96.25
2018-07-06T21:40:44.571Z,94.83
2018-07-06T21:43:30.041Z,95.89
2018-07-06T21:46:01.081Z,95.81
2018-07-06T21:48:31.040Z,95.67
2018-07-06T21:51:01.785Z,96.26
2018-07-06T21:53:33.282Z,96.21
2018-07-06T21:56:03.824Z,96.94
2018-07-06T21:58:34.845Z,96.62
2018-07-06T22:01:06.163Z,96.84
2018-07-06T22:03:36.976Z,96.80
2018-07-06T22:06:07.654Z,96.38
2018-07-06T22:08:38.219Z,96.77
2018-07-06T22:11:08.730Z,96.36
2018-07-06T22:13:39.285Z,96.84
2018-07-06T22:16:09.907Z,96.53
2018-07-06T22:18:40.269Z,97.06
2018-07-06T22:21:10.522Z,96.63
2018-07-06T22:23:40.413Z,97.05
2018-07-06T22:26:10.784Z,96.99
2018-07-06T22:28:41.446Z,97.25
2018-07-06T22:31:12.298Z,97.48
2018-07-06T22:33:42.996Z,97.55
2018-07-06T22:36:13.762Z,97.83
2018-07-06T22:38:44.333Z,97.99
2018-07-06T22:41:14.831Z,98.31
2018-07-06T22:43:45.845Z,98.69
2018-07-06T22:46:16.392Z,99.25
2018-07-06T22:48:47.281Z,99.21
2018-07-06T22:51:18.150Z,99.13
2018-07-06T22:53:48.077Z,99.82
2018-07-06T22:56:18.390Z,100.00
2018-07-06T22:58:48.963Z,99.78
2018-07-06T23:01:21.016Z,100.00
2018-07-06T23:03:51.438Z,100.00
2018-07-06T23:06:22.193Z,100.00
2018-07-06T23:08:52.819Z,100.00
2018-07-06T23:11:23.509Z,100.00
2018-07-06T23:13:54.296Z,100.00
2018-07-06T23:16:24.903Z,100.00
2018-07-06T23:18:55.535Z,100.00
2018-07-06T23:21:26.402Z,100.00
2018-07-06T23:23:57.333Z,100.00
2018-07-06T23:26:27.929Z,100.00
2018-07-06T23:28:58.568Z,100.00
2018-07-06T23:31:29.244Z,100.00
2018-07-06T23:34:00.313Z,100.00
2018-07-06T23:36:30.607Z,100.00
2018-07-06T23:39:01.393Z,100.00
2018-07-06T23:41:31.968Z,100.00
2018-07-06T23:44:02.339Z,100.00
2018-07-06T23:46:32.948Z,100.00
2018-07-06T23:49:03.473Z,100.00
2018-07-06T23:51:34.038Z,100.00
2018-07-06T23:54:04.660Z,100.00
2018-07-06T23:56:35.528Z,100.00
2018-07-06T23:59:06.012Z,100.00
